METAR stanice u blizini

 

LYBE - Beograd / Surčin, Srbija
Ažurirano: 08/12/2021 00:30
Vedro
Vedro
 Pravac vetra Z
Vetar: Z 20 km/h
Temperatura: 0°C
Osećaj hladnoće: -6°C
Tačka rose: -2°C
Vlažnost: 87%
Pritisak: 1012 hPa
Pregled: Vedro
Vidljivost: greater than 10 km
2021/12/07 23:30 LYBE 072330Z 28011KT CAVOK 00/M02 Q1012 NOSIG
LYBT - Beograd / Batajnica, Srbija
Ažurirano: 08/12/2021 00:30
Vedro
Vedro
 Pravac vetra ZJZ
Vetar: ZJZ 13 km/h
Temperatura: 0°C
Osećaj hladnoće: -4°C
Tačka rose: -1°C
Vlažnost: 93%
Pritisak: 1012 hPa
Pregled: Vedro
Vidljivost: greater than 10 km
2021/12/07 23:30 LYBT 072330Z 24007KT CAVOK M00/M01 Q1012 NOSIG
LYVR - Vršac, Srbija
Ažurirano: 08/12/2021 00:30
Oblačno
Oblačno
 Pravac vetra ZSZ
Vetar: ZSZ 11 km/h
Temperatura: 1°C
Osećaj hladnoće: -2°C
Tačka rose: 1°C
Vlažnost: 100%
Pritisak: 1010 hPa
Oblaci: Oblačno
Vidljivost: 8 km
Cloud details: Few Clouds 366 m
Oblačno 1067 m
2021/12/07 23:30 LYVR 072330Z AUTO 29006KT 8000 FEW012/// OVC035/// 01/01 Q1010
 
LYKV - Lađevci, Srbija
Ažurirano: 08/12/2021 00:30
Mostly Cloudy
Mostly Cloudy
 Pravac vetra Z
Vetar: Z 7 km/h
Temperatura: 2°C
Osećaj hladnoće: 0°C
Tačka rose: -1°C
Vlažnost: 81%
Pritisak: 1011 hPa
Oblaci: Mostly Cloudy
Vidljivost: 10 km
Cloud details: Partly Cloudy 457 m
Mostly Cloudy 914 m
2021/12/07 23:30 LYKV 072330Z 28004KT 260V320 9999 SCT015 BKN030 02/M01 Q1011 NOSIG
LYNI - Niš, Srbija
Ažurirano: 08/12/2021 00:30
Oblačno
Oblačno
 Pravac vetra SZ
Vetar: SZ 17 km/h
Temperatura: 1°C
Osećaj hladnoće: -3°C
Tačka rose: -1°C
Vlažnost: 87%
Pritisak: 1009 hPa
Oblaci: Oblačno
Vidljivost: 10 km
Cloud details: Few Clouds 305 m
Mostly Cloudy 488 m
Oblačno 762 m
2021/12/07 23:30 LYNI 072330Z 31009KT 9999 FEW010 BKN016 OVC025 01/M01 Q1009 NOSIG
BKPR - Priština, Srbija
Ažurirano: 08/12/2021 00:30
Mostly Cloudy
Mostly Cloudy
 Pravac vetra SZ
Vetar: SZ 17 km/h
Temperatura: 1°C
Osećaj hladnoće: -3°C
Tačka rose: 0°C
Vlažnost: 93%
Pritisak: 1008 hPa
Oblaci: Mostly Cloudy
Vidljivost: 10 km
Cloud details: Mostly Cloudy 2134 m
2021/12/07 23:30 BKPR 072330Z 32009KT 9999 BKN070 01/M00 Q1008 NOSIG
 
LHPP - Pecs / Pogany, Hungary
Ažurirano: 08/12/2021 00:15
Vedro
Vedro
 Pravac vetra ZSZ
Vetar: ZSZ 19 km/h
Temperatura: -1°C
Osećaj hladnoće: -7°C
Tačka rose: -2°C
Vlažnost: 93%
Pritisak: 1012 hPa
Pregled: Vedro
Vidljivost: greater than 10 km
2021/12/07 23:15 LHPP 072315Z AUTO 30010KT CAVOK M01/M02 Q1012
LHUD - Szeged, Hungary
Ažurirano: 04/07/2019 01:45
NOT Current
Vedro
Vedro
 Pravac vetra S
Vetar: S 7 km/h
Temperatura: 18°C
Tačka rose: 13°C
Vlažnost: 73%
Pritisak: 1019 hPa
Pregled: Vedro
Vidljivost: greater than 10 km
2019/07/03 23:45 LHUD 032345Z 35004KT CAVOK 18/13 Q1019
LRTR - Timisoara, Romania
Ažurirano: 08/12/2021 00:30
Mostly Cloudy
Mostly Cloudy
 Pravac vetra SZ
Vetar: SZ 17 km/h
Temperatura: 1°C
Osećaj hladnoće: -3°C
Tačka rose: 1°C
Vlažnost: 100%
Pritisak: 1009 hPa
Oblaci: Mostly Cloudy
Vidljivost: 10 km
Cloud details: Partly Cloudy 701 m
Mostly Cloudy 1189 m
2021/12/07 23:30 LRTR 072330Z 31009KT 9999 SCT023 BKN039 01/01 Q1009
 
LRCV - Craiova, Romania
Ažurirano: 08/12/2021 00:30
Padavine, Oblačno
Padavine, Oblačno
 Pravac vetra SSI
Vetar: SSI 4 km/h
Temperatura: 3°C
Tačka rose: 2°C
Vlažnost: 93%
Pritisak: 1004 hPa
Pregled: Padavine
Oblaci: Oblačno
Vidljivost: 10 km
Cloud details: Partly Cloudy 305 m
Oblačno 457 m
2021/12/07 23:30 LRCV 072330Z 02002KT 9999 RA SCT010 OVC015 03/02 Q1004
LBSF - Sofia, Bulgaria
Ažurirano: 08/12/2021 00:30
Light snow, Oblačno
Light snow, Oblačno
 Pravac vetra Z
Vetar: Z 24 km/h
Temperatura: -1°C
Osećaj hladnoće: -7°C
Tačka rose: -2°C
Vlažnost: 93%
Pritisak: 1005 hPa
Pregled: Light Snow
Oblaci: Oblačno
Vidljivost: 3 km
Cloud details: Mostly Cloudy 213 m
Oblačno 701 m
2021/12/07 23:30 LBSF 072330Z 28013KT 2700 -SN BKN007 OVC023 M01/M02 Q1005 NOSIG
LWSK - Skoplje, Makedonija
Ažurirano: 08/12/2021 00:30
Oblačno
Oblačno
 Pravac vetra SSZ
Vetar: SSZ 4 km/h
Temperatura: 3°C
Tačka rose: -1°C
Vlažnost: 75%
Pritisak: 1009 hPa
Oblaci: Oblačno
Vidljivost: 10 km
Cloud details: Oblačno 1219 m
2021/12/07 23:30 LWSK 072330Z 33002KT 9999 OVC040 03/M01 Q1009 NOSIG
 
LYPG - Podgorica, Crna Gora
Ažurirano: 08/12/2021 00:30
Vedro
Vedro
 Pravac vetra S
Vetar: S 30 km/h
Temperatura: 6°C
Osećaj hladnoće: 2°C
Tačka rose: -6°C
Vlažnost: 42%
Pritisak: 1010 hPa
Pregled: Vedro
Vidljivost: greater than 10 km
2021/12/07 23:30 LYPG 072330Z 35016KT CAVOK 06/M06 Q1010 NOSIG
LQSA - Sarajevo, Bosna i Hercegovina
Ažurirano: 08/12/2021 00:00
Mostly Cloudy
Mostly Cloudy
 Pravac vetra varies
Vetar: varies 4 km/h
Temperatura: -1°C
Tačka rose: -1°C
Vlažnost: 100%
Pritisak: 1012 hPa
Oblaci: Mostly Cloudy
Vidljivost: 10 km
Cloud details: Mostly Cloudy 1067 m
2021/12/07 23:00 LQSA 072300Z VRB02KT 9999 BKN035 M01/M01 Q1012
LDOS - Osijek, Hrvatksa
Ažurirano: 08/12/2021 00:30
Vedro
Vedro
 Pravac vetra Z
Vetar: Z 11 km/h
Temperatura: -1°C
Osećaj hladnoće: -5°C
Tačka rose: -2°C
Vlažnost: 93%
Pritisak: 1012 hPa
Pregled: Vedro
Vidljivost: greater than 10 km
2021/12/07 23:30 LDOS 072330Z 28006KT CAVOK M01/M02 Q1012